Time;durP1;ratioP1;P1;durP2;ratioP2;P2;SDS_P1;SDS_P2;PMS_P1;PMS_P2;Temp;Humidity;BMP_temperature;BMP_pressure;BME280_temperature;BME280_humidity;BME280_pressure;Samples;Min_cycle;Max_cycle;Signal;HPM_P1;HPM_P2
2023/01/02 00:00:22;;;;;;;;;;;;;;;;;;4991765;28;1977;-40
2023/01/02 00:02:49;;;;;;;;;;;;;;;;;;4991658;28;1481;-39
2023/01/02 00:05:17;;;;;;;;;;;;;;;;;;4991565;28;1618;-39
2023/01/02 00:07:44;;;;;;;;;;;;;;;;;;4991850;28;1968;-39
2023/01/02 00:10:11;;;;;;;;;;;;;;;;;;4991625;28;1912;-40
2023/01/02 00:12:38;;;;;;;;;;;;;;;;;;4991740;28;2291;-42
2023/01/02 00:15:05;;;;;;;;;;;;;;;;;;4992056;28;1491;-40
2023/01/02 00:17:33;;;;;;;;;;;;;;;;;;4974576;28;2027;-41
2023/01/02 00:20:00;;;;;;;;;;;;;;;;;;4991742;28;1586;-40
2023/01/02 00:22:27;;;;;;;;;;;;;;;;;;4991665;28;1751;-40
2023/01/02 00:24:54;;;;;;;;;;;;;;;;;;4991797;28;2276;-40
2023/01/02 00:27:21;;;;;;;;;;;;;;;;;;4991581;28;1889;-40
2023/01/02 00:29:49;;;;;;;;;;;;;;;;;;4977219;28;1943;-41
2023/01/02 00:32:16;;;;;;;;;;;;;;;;;;4995363;28;1888;-40
2023/01/02 00:34:46;;;;;;;;;;;;;;;;;;4995283;28;1861;-41
2023/01/02 00:37:13;;;;;;;;;;;;;;;;;;4994198;28;1827;-39
2023/01/02 00:39:40;;;;;;;;;;;;;;;;;;4995352;28;1871;-39
2023/01/02 00:42:07;;;;;;;;;;;;;;;;;;4995258;28;1878;-40
2023/01/02 00:44:34;;;;;;;;;;;;;;;;;;4995056;28;1947;-39
2023/01/02 00:47:01;;;;;;;;;;;;;;;;;;4995063;28;2008;-39
2023/01/02 00:49:28;;;;;;;;;;;;;;;;;;4995378;28;1966;-40
2023/01/02 00:51:56;;;;;;;;;;;;;;;;;;4977622;28;1750;-39
2023/01/02 00:54:23;;;;;;;;;;;;;;;;;;4993734;28;2610;-39
2023/01/02 00:56:52;;;;;;;;;;;;;;;;;;4995032;28;1480;-40
2023/01/02 00:59:20;;;;;;;;;;;;;;;;;;4994652;28;1954;-39
2023/01/02 01:01:47;;;;;;;;;;;;;;;;;;4994944;28;1508;-39
2023/01/02 01:04:14;;;;;;;;;;;;;;;;;;4994859;28;1837;-39
2023/01/02 01:06:42;;;;;;;;;;;;;;;;;;4994901;28;1395;-40
2023/01/02 01:09:09;;;;;;;;;;;;;;;;;;4994847;28;1698;-40
2023/01/02 01:11:36;;;;;;;;;;;;;;;;;;4994594;28;1983;-39
2023/01/02 01:14:03;;;;;;;;;;;;;;;;;;4994840;28;2058;-39
2023/01/02 01:16:30;;;;;;;;;;;;;;;;;;4994808;28;2174;-39
2023/01/02 01:18:58;;;;;;;;;;;;;;;;;;4994393;28;2204;-39
2023/01/02 01:21:25;;;;;;;;;;;;;;;;;;4994622;28;2107;-39
2023/01/02 01:23:53;;;;;;;;;;;;;;;;;;4994593;28;2158;-39
2023/01/02 01:26:21;;;;;;;;;;;;;;;;;;4994384;28;1531;-39
2023/01/02 01:28:50;;;;;;;;;;;;;;;;;;4994458;28;1798;-40
2023/01/02 01:31:19;;;;;;;;;;;;;;;;;;4994291;28;1910;-39
2023/01/02 01:33:49;;;;;;;;;;;;;;;;;;4994455;28;2115;-39
2023/01/02 01:36:18;;;;;;;;;;;;;;;;;;4994301;28;2105;-39
2023/01/02 01:38:46;;;;;;;;;;;;;;;;;;4994152;28;1660;-39
2023/01/02 01:41:15;;;;;;;;;;;;;;;;;;4993902;28;1389;-40
2023/01/02 01:43:49;;;;;;;;;;;;;;;;;;4994111;28;1849;-42
2023/01/02 01:46:28;;;;;;;;;;;;;;;;;;4994218;28;2018;-39
2023/01/02 01:49:15;;;;;;;;;;;;;;;;;;4993904;28;1855;-39
2023/01/02 01:51:48;;;;;;;;;;;;;;;;;;4983769;28;1926;-42
2023/01/02 01:54:17;;;;;;;;;;;;;;;;;;4994060;28;1504;-40
2023/01/02 01:56:47;;;;;;;;;;;;;;;;;;4994025;28;1366;-39
2023/01/02 01:59:15;;;;;;;;;;;;;;;;;;4993874;28;1618;-40
2023/01/02 02:01:43;;;;;;;;;;;;;;;;;;4994030;28;2104;-39
2023/01/02 02:04:12;;;;;;;;;;;;;;;;;;4993737;28;1953;-40
2023/01/02 02:06:39;;;;;;;;;;;;;;;;;;4993850;28;1776;-39
2023/01/02 02:09:12;;;;;;;;;;;;;;;;;;4993958;28;1449;-40
2023/01/02 02:11:39;;;;;;;;;;;;;;;;;;4992030;28;1916;-39
2023/01/02 02:14:06;;;;;;;;;;;;;;;;;;4993856;28;1862;-39
2023/01/02 02:16:57;;;;;;;;;;;;;;;;;;4993580;28;1887;-40
2023/01/02 02:19:24;;;;;;;;;;;;;;;;;;4988332;28;1871;-39
2023/01/02 02:21:51;;;;;;;;;;;;;;;;;;4993601;28;1491;-41
2023/01/02 02:24:33;;;;;;;;;;;;;;;;;;4993337;28;1941;-40
2023/01/02 02:27:01;;;;;;;;;;;;;;;;;;4993180;28;1251;-40
2023/01/02 02:29:42;;;;;;;;;;;;;;;;;;4993487;28;2060;-40
2023/01/02 02:32:23;;;;;;;;;;;;;;;;;;4993316;28;1971;-40
2023/01/02 02:35:17;;;;;;;;;;;;;;;;;;4973668;28;2189;-39
2023/01/02 02:37:44;;;;;;;;;;;;;;;;;;4972877;28;1442;-39
2023/01/02 02:40:33;;;;;;;;;;;;;;;;;;4973696;28;2063;-40
2023/01/02 02:43:16;;;;;;;;;;;;;;;;;;4973437;28;2169;-40
2023/01/02 02:45:55;;;;;;;;;;;;;;;;;;4973453;28;1652;-40
2023/01/02 02:48:27;;;;;;;;;;;;;;;;;;4973455;28;1537;-41
2023/01/02 02:50:54;;;;;;;;;;;;;;;;;;4972860;28;1920;-40
2023/01/02 02:53:23;;;;;;;;;;;;;;;;;;4973295;28;1953;-40
2023/01/02 02:55:53;;;;;;;;;;;;;;;;;;4973529;28;1862;-40
2023/01/02 02:58:22;;;;;;;;;;;;;;;;;;4973084;28;1495;-40
2023/01/02 03:00:49;;;;;;;;;;;;;;;;;;4972031;28;1839;-40
2023/01/02 03:03:21;;;;;;;;;;;;;;;;;;4988119;28;2261;-41
2023/01/02 03:05:51;;;;;;;;;;;;;;;;;;4973342;28;1974;-40
2023/01/02 03:08:18;;;;;;;;;;;;;;;;;;4973138;28;1479;-40
2023/01/02 03:10:55;;;;;;;;;;;;;;;;;;4972926;28;1920;-40
2023/01/02 03:13:31;;;;;;;;;;;;;;;;;;4973102;28;1469;-41
2023/01/02 03:16:09;;;;;;;;;;;;;;;;;;4973213;28;2271;-41
2023/01/02 03:18:40;;;;;;;;;;;;;;;;;;4973004;28;2069;-39
2023/01/02 03:21:11;;;;;;;;;;;;;;;;;;4972820;28;1683;-40
2023/01/02 03:23:43;;;;;;;;;;;;;;;;;;4973104;28;1471;-40
2023/01/02 03:26:15;;;;;;;;;;;;;;;;;;4973061;28;2042;-40
2023/01/02 03:28:44;;;;;;;;;;;;;;;;;;4973036;28;1992;-41
2023/01/02 03:31:17;;;;;;;;;;;;;;;;;;4972938;28;2291;-40
2023/01/02 03:33:49;;;;;;;;;;;;;;;;;;4983427;28;1790;-40
2023/01/02 03:36:23;;;;;;;;;;;;;;;;;;4992089;28;1601;-40
2023/01/02 03:38:59;;;;;;;;;;;;;;;;;;4992159;28;2239;-41
2023/01/02 03:41:28;;;;;;;;;;;;;;;;;;4992415;28;2015;-41
2023/01/02 03:43:56;;;;;;;;;;;;;;;;;;4991857;28;1663;-41
2023/01/02 03:46:37;;;;;;;;;;;;;;;;;;4992042;28;1794;-40
2023/01/02 03:49:07;;;;;;;;;;;;;;;;;;4992024;28;2117;-41
2023/01/02 03:51:34;;;;;;;;;;;;;;;;;;4991918;28;1912;-42
2023/01/02 03:54:03;;;;;;;;;;;;;;;;;;4991920;28;1570;-42
2023/01/02 03:56:48;;;;;;;;;;;;;;;;;;4991559;28;1699;-40
2023/01/02 03:59:35;;;;;;;;;;;;;;;;;;4991906;28;1865;-40
2023/01/02 04:02:09;;;;;;;;;;;;;;;;;;4991723;28;1622;-40
2023/01/02 04:04:48;;;;;;;;;;;;;;;;;;4991866;28;1382;-40
2023/01/02 04:07:26;;;;;;;;;;;;;;;;;;4991868;28;1674;-40
2023/01/02 04:09:54;;;;;;;;;;;;;;;;;;4991644;28;1874;-40
2023/01/02 04:12:23;;;;;;;;;;;;;;;;;;4991672;28;1922;-43
2023/01/02 04:14:57;;;;;;;;;;;;;;;;;;4991720;28;1428;-40
2023/01/02 04:17:25;;;;;;;;;;;;;;;;;;4991437;28;1836;-41
2023/01/02 04:19:56;;;;;;;;;;;;;;;;;;4993476;28;1551;-40
2023/01/02 04:22:26;;;;;;;;;;;;;;;;;;5001748;28;2157;-40
2023/01/02 04:24:55;;;;;;;;;;;;;;;;;;4990722;28;1677;-42
2023/01/02 04:27:28;;;;;;;;;;;;;;;;;;4991178;28;2287;-41
2023/01/02 04:29:55;;;;;;;;;;;;;;;;;;4991391;28;1793;-41
2023/01/02 04:32:26;;;;;;;;;;;;;;;;;;4991179;28;1975;-40
2023/01/02 04:34:54;;;;;;;;;;;;;;;;;;4991352;28;1917;-41
2023/01/02 04:37:26;;;;;;;;;;;;;;;;;;4991335;28;1542;-40
2023/01/02 04:39:55;;;;;;;;;;;;;;;;;;4991332;28;1670;-41
2023/01/02 04:42:23;;;;;;;;;;;;;;;;;;4973919;28;2038;-41
2023/01/02 04:44:50;;;;;;;;;;;;;;;;;;4991390;28;2030;-40
2023/01/02 04:47:17;;;;;;;;;;;;;;;;;;4991467;28;2008;-41
2023/01/02 04:49:47;;;;;;;;;;;;;;;;;;4991416;28;1349;-41
2023/01/02 04:52:14;;;;;;;;;;;;;;;;;;4991410;28;1910;-41
2023/01/02 04:54:41;;;;;;;;;;;;;;;;;;4991431;28;2113;-40
2023/01/02 04:57:08;;;;;;;;;;;;;;;;;;4991176;28;1564;-41
2023/01/02 04:59:36;;;;;;;;;;;;;;;;;;4991288;28;1719;-41
2023/01/02 05:02:03;;;;;;;;;;;;;;;;;;4991254;28;1660;-41
2023/01/02 05:04:30;;;;;;;;;;;;;;;;;;4991010;28;1875;-41
2023/01/02 05:06:57;;;;;;;;;;;;;;;;;;4991272;28;1856;-41
2023/01/02 05:09:24;;;;;;;;;;;;;;;;;;4991040;28;2151;-41
2023/01/02 05:11:51;;;;;;;;;;;;;;;;;;4991158;28;2006;-41
2023/01/02 05:14:19;;;;;;;;;;;;;;;;;;4991880;28;1443;-41
2023/01/02 05:16:46;;;;;;;;;;;;;;;;;;4994904;28;1823;-40
2023/01/02 05:19:14;;;;;;;;;;;;;;;;;;4994780;28;1912;-41
2023/01/02 05:24:26;;;;;;;;;;;;;;;;;;4994521;28;2037;-42
2023/01/02 05:26:57;;;;;;;;;;;;;;;;;;4994474;28;2073;-40
2023/01/02 05:29:24;;;;;;;;;;;;;;;;;;4994448;28;1980;-41
2023/01/02 05:31:53;;;;;;;;;;;;;;;;;;4994387;28;1887;-41
2023/01/02 05:34:21;;;;;;;;;;;;;;;;;;4994275;28;1689;-41
2023/01/02 05:36:49;;;;;;;;;;;;;;;;;;4994461;28;1994;-41
2023/01/02 05:39:17;;;;;;;;;;;;;;;;;;4994429;28;1343;-42
2023/01/02 05:41:44;;;;;;;;;;;;;;;;;;4994032;28;1703;-41
2023/01/02 05:44:11;;;;;;;;;;;;;;;;;;4994331;28;1834;-41
2023/01/02 05:46:38;;;;;;;;;;;;;;;;;;4994163;28;2032;-40
2023/01/02 05:49:07;;;;;;;;;;;;;;;;;;4994039;28;1910;-42
2023/01/02 05:51:34;;;;;;;;;;;;;;;;;;4994039;28;1979;-41
2023/01/02 05:54:02;;;;;;;;;;;;;;;;;;4993974;28;1900;-41
2023/01/02 05:56:30;;;;;;;;;;;;;;;;;;4993962;28;1858;-41
2023/01/02 05:58:57;;;;;;;;;;;;;;;;;;4993848;28;1990;-41
2023/01/02 06:01:28;;;;;;;;;;;;;;;;;;4993769;28;1289;-41
2023/01/02 06:03:57;;;;;;;;;;;;;;;;;;4993834;28;1526;-40
2023/01/02 06:06:25;;;;;;;;;;;;;;;;;;4993663;28;1840;-41
2023/01/02 06:08:52;;;;;;;;;;;;;;;;;;4993872;28;2000;-41
2023/01/02 06:11:20;;;;;;;;;;;;;;;;;;4993815;28;1970;-41
2023/01/02 06:13:47;;;;;;;;;;;;;;;;;;4993915;28;1567;-41
2023/01/02 06:16:14;;;;;;;;;;;;;;;;;;4993464;28;1608;-41
2023/01/02 06:18:41;;;;;;;;;;;;;;;;;;4993555;28;2134;-41
2023/01/02 06:21:12;;;;;;;;;;;;;;;;;;4993561;28;2090;-41
2023/01/02 06:23:40;;;;;;;;;;;;;;;;;;4991290;28;2193;-41
2023/01/02 06:26:07;;;;;;;;;;;;;;;;;;4992279;28;1557;-41
2023/01/02 06:28:34;;;;;;;;;;;;;;;;;;4991992;28;1468;-42
2023/01/02 06:31:02;;;;;;;;;;;;;;;;;;4993347;28;1970;-41
2023/01/02 06:33:29;;;;;;;;;;;;;;;;;;4993371;28;2182;-41
2023/01/02 06:36:00;;;;;;;;;;;;;;;;;;4993306;28;2131;-43
2023/01/02 06:38:27;;;;;;;;;;;;;;;;;;4993265;28;1906;-42
2023/01/02 06:40:55;;;;;;;;;;;;;;;;;;4993598;28;2129;-41
2023/01/02 06:43:23;;;;;;;;;;;;;;;;;;4992993;28;1833;-41
2023/01/02 06:45:50;;;;;;;;;;;;;;;;;;4993320;28;1648;-41
2023/01/02 06:48:17;;;;;;;;;;;;;;;;;;4993002;28;1705;-43
2023/01/02 06:50:45;;;;;;;;;;;;;;;;;;4993023;28;2195;-41
2023/01/02 06:53:12;;;;;;;;;;;;;;;;;;4992852;28;1910;-41
2023/01/02 06:55:39;;;;;;;;;;;;;;;;;;4992674;28;1853;-41
2023/01/02 06:58:06;;;;;;;;;;;;;;;;;;4993151;28;1965;-42
2023/01/02 07:00:38;;;;;;;;;;;;;;;;;;4992740;28;2101;-42
2023/01/02 07:03:05;;;;;;;;;;;;;;;;;;4993043;28;2038;-41
2023/01/02 07:05:32;;;;;;;;;;;;;;;;;;4992669;28;1970;-41
2023/01/02 07:07:59;;;;;;;;;;;;;;;;;;4992585;28;1761;-41
2023/01/02 07:10:29;;;;;;;;;;;;;;;;;;4992553;28;1301;-40
2023/01/02 07:12:56;;;;;;;;;;;;;;;;;;4992405;28;1917;-41
2023/01/02 07:15:23;;;;;;;;;;;;;;;;;;4992633;28;1674;-41
2023/01/02 07:17:51;;;;;;;;;;;;;;;;;;4992495;28;1975;-41
2023/01/02 07:20:18;;;;;;;;;;;;;;;;;;4992398;28;1873;-41
2023/01/02 07:22:50;;;;;;;;;;;;;;;;;;4992297;28;1827;-41
2023/01/02 07:25:18;;;;;;;;;;;;;;;;;;4992321;28;1992;-41
2023/01/02 07:27:45;;;;;;;;;;;;;;;;;;4992393;28;2140;-42
2023/01/02 07:30:12;;;;;;;;;;;;;;;;;;4992324;28;1266;-42
2023/01/02 07:32:40;;;;;;;;;;;;;;;;;;4991938;28;1979;-41
2023/01/02 07:35:07;;;;;;;;;;;;;;;;;;4992361;28;1944;-41
2023/01/02 07:37:34;;;;;;;;;;;;;;;;;;4991571;28;2292;-41
2023/01/02 07:40:05;;;;;;;;;;;;;;;;;;4955461;28;1708;-41
2023/01/02 07:42:32;;;;;;;;;;;;;;;;;;4972555;28;1676;-40
2023/01/02 07:45:01;;;;;;;;;;;;;;;;;;4972586;28;1791;-40
2023/01/02 07:47:28;;;;;;;;;;;;;;;;;;4972699;28;1084;-40
2023/01/02 07:49:56;;;;;;;;;;;;;;;;;;4972374;28;1978;-40
2023/01/02 07:52:23;;;;;;;;;;;;;;;;;;4972757;28;2046;-40
2023/01/02 07:54:50;;;;;;;;;;;;;;;;;;4972530;28;1583;-41
2023/01/02 07:57:17;;;;;;;;;;;;;;;;;;4972549;28;1908;-41
2023/01/02 07:59:45;;;;;;;;;;;;;;;;;;4972584;28;2238;-43
2023/01/02 08:02:12;;;;;;;;;;;;;;;;;;4972338;28;2146;-41
2023/01/02 08:04:40;;;;;;;;;;;;;;;;;;4972262;28;1393;-41
2023/01/02 08:07:08;;;;;;;;;;;;;;;;;;4972289;28;1502;-41
2023/01/02 08:09:35;;;;;;;;;;;;;;;;;;4985988;28;2177;-40
2023/01/02 08:12:03;;;;;;;;;;;;;;;;;;4991942;28;1981;-41
2023/01/02 08:14:30;;;;;;;;;;;;;;;;;;4991642;28;1976;-41
2023/01/02 08:16:57;;;;;;;;;;;;;;;;;;4990227;28;2177;-41
2023/01/02 08:19:25;;;;;;;;;;;;;;;;;;4991860;28;1620;-41
2023/01/02 08:21:52;;;;;;;;;;;;;;;;;;4991579;28;1946;-41
2023/01/02 08:24:19;;;;;;;;;;;;;;;;;;4991645;28;1954;-41
2023/01/02 08:26:46;;;;;;;;;;;;;;;;;;4991495;28;1480;-41
2023/01/02 08:29:13;;;;;;;;;;;;;;;;;;4991402;28;1759;-40
2023/01/02 08:31:46;;;;;;;;;;;;;;;;;;4991412;28;1907;-41
2023/01/02 08:34:16;;;;;;;;;;;;;;;;;;4991344;28;2112;-42
2023/01/02 08:36:43;;;;;;;;;;;;;;;;;;4991569;28;1973;-41
2023/01/02 08:39:11;;;;;;;;;;;;;;;;;;4991386;28;1761;-40
2023/01/02 08:41:39;;;;;;;;;;;;;;;;;;4991605;28;1472;-41
2023/01/02 08:44:06;;;;;;;;;;;;;;;;;;4991275;28;1850;-41
2023/01/02 08:46:34;;;;;;;;;;;;;;;;;;4991411;28;1170;-41
2023/01/02 08:49:08;;;;;;;;;;;;;;;;;;4991543;28;1550;-41
2023/01/02 08:51:35;;;;;;;;;;;;;;;;;;4994888;28;1919;-41
2023/01/02 08:54:03;;;;;;;;;;;;;;;;;;4995207;28;1943;-41
2023/01/02 08:56:31;;;;;;;;;;;;;;;;;;4995010;28;1625;-41
2023/01/02 08:59:03;;;;;;;;;;;;;;;;;;4995366;28;1720;-41
2023/01/02 09:01:32;;;;;;;;;;;;;;;;;;4994985;28;2067;-41
2023/01/02 09:04:00;;;;;;;;;;;;;;;;;;4995278;28;2304;-42
2023/01/02 09:06:38;;;;;;;;;;;;;;;;;;4993926;28;1459;-41
2023/01/02 09:09:05;;;;;;;;;;;;;;;;;;4994635;28;1837;-41
2023/01/02 09:11:38;;;;;;;;;;;;;;;;;;4994788;28;2053;-40
2023/01/02 09:14:06;;;;;;;;;;;;;;;;;;4994988;28;1678;-40
2023/01/02 09:16:33;;;;;;;;;;;;;;;;;;4995236;28;2300;-40
2023/01/02 09:19:02;;;;;;;;;;;;;;;;;;4994848;28;2204;-41
2023/01/02 09:21:29;;;;;;;;;;;;;;;;;;4994670;28;1713;-41
2023/01/02 09:23:57;;;;;;;;;;;;;;;;;;4994569;28;2025;-43
2023/01/02 09:26:24;;;;;;;;;;;;;;;;;;4994567;28;1879;-41
2023/01/02 09:28:51;;;;;;;;;;;;;;;;;;4994082;28;2127;-42
2023/01/02 09:31:20;;;;;;;;;;;;;;;;;;4994378;28;2021;-41
2023/01/02 09:33:48;;;;;;;;;;;;;;;;;;4994247;28;1910;-41
2023/01/02 09:36:16;;;;;;;;;;;;;;;;;;4994205;28;1308;-41
2023/01/02 09:38:48;;;;;;;;;;;;;;;;;;4994384;28;2327;-41
2023/01/02 09:41:25;;;;;;;;;;;;;;;;;;4994128;28;1765;-40
2023/01/02 09:44:10;;;;;;;;;;;;;;;;;;4993516;28;1789;-41
2023/01/02 09:46:46;;;;;;;;;;;;;;;;;;4993778;28;1694;-40
2023/01/02 09:49:15;;;;;;;;;;;;;;;;;;4992521;28;1850;-41
2023/01/02 09:51:43;;;;;;;;;;;;;;;;;;4991791;28;1906;-42
2023/01/02 09:54:21;;;;;;;;;;;;;;;;;;4991272;28;1832;-41
2023/01/02 09:56:54;;;;;;;;;;;;;;;;;;4990071;28;2224;-40
2023/01/02 09:59:28;;;;;;;;;;;;;;;;;;4990121;28;1619;-41
2023/01/02 10:01:55;;;;;;;;;;;;;;;;;;4989997;28;1717;-41
2023/01/02 10:04:32;;;;;;;;;;;;;;;;;;4991227;28;2107;-41
2023/01/02 10:07:05;;;;;;;;;;;;;;;;;;4991211;28;2081;-41
2023/01/02 10:09:43;;;;;;;;;;;;;;;;;;4992574;28;2081;-42
2023/01/02 10:12:14;;;;;;;;;;;;;;;;;;4993771;28;1908;-41
2023/01/02 10:15:02;;;;;;;;;;;;;;;;;;4993702;28;1914;-42
2023/01/02 10:17:33;;;;;;;;;;;;;;;;;;4993598;28;1822;-41
2023/01/02 10:20:18;;;;;;;;;;;;;;;;;;4993542;28;1370;-41
2023/01/02 10:22:51;;;;;;;;;;;;;;;;;;4976826;28;2083;-41
2023/01/02 10:25:23;;;;;;;;;;;;;;;;;;4995003;28;2140;-40
2023/01/02 10:27:53;;;;;;;;;;;;;;;;;;5013160;28;1782;-40
2023/01/02 10:30:22;;;;;;;;;;;;;;;;;;5012681;28;1809;-41
2023/01/02 10:32:55;;;;;;;;;;;;;;;;;;5009400;28;1969;-41
2023/01/02 10:35:31;;;;;;;;;;;;;;;;;;4993121;28;1571;-41
2023/01/02 10:37:58;;;;;;;;;;;;;;;;;;4992984;28;1483;-41
2023/01/02 10:40:25;;;;;;;;;;;;;;;;;;4991936;28;2015;-41
2023/01/02 10:42:55;;;;;;;;;;;;;;;;;;4992912;28;2026;-40
2023/01/02 10:45:25;;;;;;;;;;;;;;;;;;4993174;28;2108;-41
2023/01/02 10:47:52;;;;;;;;;;;;;;;;;;4993061;28;1599;-40
2023/01/02 10:50:21;;;;;;;;;;;;;;;;;;4993079;28;1848;-42
2023/01/02 10:52:50;;;;;;;;;;;;;;;;;;4992830;28;1925;-40
2023/01/02 10:55:31;;;;;;;;;;;;;;;;;;4992426;28;2162;-41
2023/01/02 10:58:03;;;;;;;;;;;;;;;;;;4992830;28;1803;-41
2023/01/02 11:00:31;;;;;;;;;;;;;;;;;;4975573;28;1794;-41
2023/01/02 11:02:59;;;;;;;;;;;;;;;;;;4992747;28;1464;-41
2023/01/02 11:05:30;;;;;;;;;;;;;;;;;;4992667;28;1696;-42
2023/01/02 11:07:57;;;;;;;;;;;;;;;;;;4992542;28;2084;-41
2023/01/02 11:10:36;;;;;;;;;;;;;;;;;;4992441;28;1832;-39
2023/01/02 11:13:07;;;;;;;;;;;;;;;;;;4991962;28;1915;-41
2023/01/02 11:15:40;;;;;;;;;;;;;;;;;;4992494;28;2012;-41
2023/01/02 11:18:10;;;;;;;;;;;;;;;;;;4992460;28;2402;-41
2023/01/02 11:20:37;;;;;;;;;;;;;;;;;;4992597;28;2030;-41
2023/01/02 11:23:05;;;;;;;;;;;;;;;;;;4992408;28;1938;-41
2023/01/02 11:25:37;;;;;;;;;;;;;;;;;;4992456;28;1706;-41
2023/01/02 11:28:04;;;;;;;;;;;;;;;;;;4992306;28;1977;-41
2023/01/02 11:30:41;;;;;;;;;;;;;;;;;;4992359;28;1923;-41
2023/01/02 11:33:11;;;;;;;;;;;;;;;;;;4992246;28;1914;-42
2023/01/02 11:35:38;;;;;;;;;;;;;;;;;;4992582;28;1745;-41
2023/01/02 11:38:12;;;;;;;;;;;;;;;;;;4992143;28;2238;-41
2023/01/02 11:40:52;;;;;;;;;;;;;;;;;;4992383;28;2202;-41
2023/01/02 11:46:17;;;;;;;;;;;;;;;;;;4991164;28;2456;-40
2023/01/02 11:48:45;;;;;;;;;;;;;;;;;;4992091;28;1873;-41
2023/01/02 11:51:16;;;;;;;;;;;;;;;;;;4992047;28;1927;-45
2023/01/02 11:53:47;;;;;;;;;;;;;;;;;;4991626;28;2301;-41
2023/01/02 11:56:18;;;;;;;;;;;;;;;;;;4991987;28;1456;-40
2023/01/02 11:58:54;;;;;;;;;;;;;;;;;;4991903;28;1709;-41
2023/01/02 12:01:26;;;;;;;;;;;;;;;;;;4991858;28;1432;-41
2023/01/02 12:03:54;;;;;;;;;;;;;;;;;;4996911;28;1751;-41
2023/01/02 12:06:22;;;;;;;;;;;;;;;;;;4995144;28;1911;-42
2023/01/02 12:08:56;;;;;;;;;;;;;;;;;;4991973;28;1461;-43
2023/01/02 12:11:41;;;;;;;;;;;;;;;;;;4990467;28;2085;-41
2023/01/02 12:14:11;;;;;;;;;;;;;;;;;;4991379;28;1977;-41
2023/01/02 12:16:51;;;;;;;;;;;;;;;;;;4990073;28;2215;-41
2023/01/02 12:19:37;;;;;;;;;;;;;;;;;;4991030;28;1782;-41
2023/01/02 12:22:04;;;;;;;;;;;;;;;;;;4991743;28;1402;-42
2023/01/02 12:24:50;;;;;;;;;;;;;;;;;;4994301;28;1298;-40
2023/01/02 12:27:34;;;;;;;;;;;;;;;;;;4995508;28;1999;-41
2023/01/02 12:30:06;;;;;;;;;;;;;;;;;;4977986;28;2163;-41
2023/01/02 12:32:33;;;;;;;;;;;;;;;;;;4995447;28;1910;-41
2023/01/02 12:35:08;;;;;;;;;;;;;;;;;;4995440;28;1971;-41
2023/01/02 12:37:44;;;;;;;;;;;;;;;;;;4994711;28;1963;-41
2023/01/02 12:40:17;;;;;;;;;;;;;;;;;;4995073;28;1996;-42
2023/01/02 12:43:17;;;;;;;;;;;;;;;;;;4986834;28;1594;-41
2023/01/02 12:45:58;;;;;;;;;;;;;;;;;;4994670;28;1764;-40
2023/01/02 12:48:52;;;;;;;;;;;;;;;;;;4994156;28;1999;-41
2023/01/02 12:51:31;;;;;;;;;;;;;;;;;;4995020;28;1859;-40
2023/01/02 12:54:28;;;;;;;;;;;;;;;;;;4993222;28;1918;-40
2023/01/02 12:57:04;;;;;;;;;;;;;;;;;;4986041;28;2006;-41
2023/01/02 12:59:40;;;;;;;;;;;;;;;;;;4995056;28;1598;-41
2023/01/02 13:02:13;;;;;;;;;;;;;;;;;;4994863;28;1370;-40
2023/01/02 13:04:43;;;;;;;;;;;;;;;;;;4995014;28;2181;-42
2023/01/02 13:07:13;;;;;;;;;;;;;;;;;;4994978;28;1528;-41
2023/01/02 13:09:41;;;;;;;;;;;;;;;;;;4994791;28;2082;-41
2023/01/02 13:12:13;;;;;;;;;;;;;;;;;;4994766;28;1708;-41
2023/01/02 13:14:59;;;;;;;;;;;;;;;;;;4994668;28;1971;-40
2023/01/02 13:17:42;;;;;;;;;;;;;;;;;;4994755;28;1602;-41
2023/01/02 13:20:18;;;;;;;;;;;;;;;;;;4994497;28;1700;-43
2023/01/02 13:23:04;;;;;;;;;;;;;;;;;;4994691;28;1629;-41
2023/01/02 13:25:32;;;;;;;;;;;;;;;;;;4994321;28;1933;-41
2023/01/02 13:28:04;;;;;;;;;;;;;;;;;;4994551;28;2005;-41
2023/01/02 13:30:36;;;;;;;;;;;;;;;;;;4994409;28;1861;-41
2023/01/02 13:33:11;;;;;;;;;;;;;;;;;;4994351;28;2025;-39
2023/01/02 13:35:38;;;;;;;;;;;;;;;;;;4993559;28;1734;-41
2023/01/02 13:38:07;;;;;;;;;;;;;;;;;;4994257;28;1852;-41
2023/01/02 13:40:34;;;;;;;;;;;;;;;;;;4994376;28;2016;-42
2023/01/02 13:43:04;;;;;;;;;;;;;;;;;;4994008;28;1809;-41
2023/01/02 13:45:36;;;;;;;;;;;;;;;;;;4994199;28;1535;-40
2023/01/02 13:48:04;;;;;;;;;;;;;;;;;;4994126;28;1842;-39
2023/01/02 13:50:31;;;;;;;;;;;;;;;;;;4993979;28;2050;-41
2023/01/02 13:53:01;;;;;;;;;;;;;;;;;;4994008;28;2077;-41
2023/01/02 13:55:30;;;;;;;;;;;;;;;;;;4994005;28;1796;-41
2023/01/02 13:58:19;;;;;;;;;;;;;;;;;;4992919;28;1868;-41
2023/01/02 14:00:56;;;;;;;;;;;;;;;;;;4993712;28;1325;-41
2023/01/02 14:03:23;;;;;;;;;;;;;;;;;;4993776;28;1988;-40
2023/01/02 14:05:59;;;;;;;;;;;;;;;;;;4994171;28;2003;-41
2023/01/02 14:08:26;;;;;;;;;;;;;;;;;;4993836;28;1713;-41
2023/01/02 14:11:13;;;;;;;;;;;;;;;;;;4993909;28;1989;-40
2023/01/02 14:13:46;;;;;;;;;;;;;;;;;;4986671;28;2032;-40
2023/01/02 14:16:25;;;;;;;;;;;;;;;;;;4993598;28;2117;-41
2023/01/02 14:19:11;;;;;;;;;;;;;;;;;;4993552;28;2019;-40
2023/01/02 14:21:49;;;;;;;;;;;;;;;;;;4993295;28;2066;-40
2023/01/02 14:24:26;;;;;;;;;;;;;;;;;;4993493;28;1918;-40
2023/01/02 14:27:15;;;;;;;;;;;;;;;;;;4993575;28;2013;-40
2023/01/02 14:29:44;;;;;;;;;;;;;;;;;;4993394;28;1747;-40
2023/01/02 14:32:21;;;;;;;;;;;;;;;;;;4993570;28;1831;-40
2023/01/02 14:34:51;;;;;;;;;;;;;;;;;;4993223;28;1993;-40
2023/01/02 14:37:33;;;;;;;;;;;;;;;;;;4993034;28;2018;-40
2023/01/02 14:40:20;;;;;;;;;;;;;;;;;;4993160;28;1396;-40
2023/01/02 14:45:46;;;;;;;;;;;;;;;;;;4993150;28;2020;-40
2023/01/02 14:48:19;;;;;;;;;;;;;;;;;;4992102;28;1648;-40
2023/01/02 14:50:52;;;;;;;;;;;;;;;;;;4992840;28;1738;-40
2023/01/02 14:53:19;;;;;;;;;;;;;;;;;;4992667;28;1965;-41
2023/01/02 14:55:47;;;;;;;;;;;;;;;;;;4992812;28;1882;-41
2023/01/02 14:58:35;;;;;;;;;;;;;;;;;;4992761;28;1387;-41
2023/01/02 15:01:02;;;;;;;;;;;;;;;;;;4992696;28;1705;-40
2023/01/02 15:03:36;;;;;;;;;;;;;;;;;;4992720;28;1720;-40
2023/01/02 15:06:07;;;;;;;;;;;;;;;;;;4992819;28;1885;-40
2023/01/02 15:08:47;;;;;;;;;;;;;;;;;;4992612;28;2141;-40
2023/01/02 15:14:04;;;;;;;;;;;;;;;;;;4992569;28;1910;-40
2023/01/02 15:16:37;;;;;;;;;;;;;;;;;;4992467;28;2303;-40
2023/01/02 15:19:04;;;;;;;;;;;;;;;;;;4992332;28;1361;-40
2023/01/02 15:21:38;;;;;;;;;;;;;;;;;;4992489;28;1923;-40
2023/01/02 15:24:06;;;;;;;;;;;;;;;;;;4992134;28;1904;-40
2023/01/02 15:26:33;;;;;;;;;;;;;;;;;;4992546;28;1721;-40
2023/01/02 15:29:02;;;;;;;;;;;;;;;;;;4992303;28;1876;-40
2023/01/02 15:31:30;;;;;;;;;;;;;;;;;;4992219;28;1943;-40
2023/01/02 15:34:00;;;;;;;;;;;;;;;;;;4992654;28;2179;-40
2023/01/02 15:36:39;;;;;;;;;;;;;;;;;;4992525;28;1763;-40
2023/01/02 15:39:11;;;;;;;;;;;;;;;;;;4992142;28;1897;-39
2023/01/02 15:41:42;;;;;;;;;;;;;;;;;;4992036;28;2024;-40
2023/01/02 15:46:57;;;;;;;;;;;;;;;;;;4992163;28;1833;-39
2023/01/02 15:49:28;;;;;;;;;;;;;;;;;;4992145;28;1704;-40
2023/01/02 15:51:57;;;;;;;;;;;;;;;;;;4992133;28;2138;-40
2023/01/02 15:54:26;;;;;;;;;;;;;;;;;;4992074;28;1989;-40
2023/01/02 15:57:03;;;;;;;;;;;;;;;;;;4991861;28;1976;-39
2023/01/02 15:59:35;;;;;;;;;;;;;;;;;;4991353;28;2004;-40
2023/01/02 16:02:03;;;;;;;;;;;;;;;;;;4991774;28;1867;-40
2023/01/02 16:04:31;;;;;;;;;;;;;;;;;;4991853;28;1448;-43
2023/01/02 16:07:20;;;;;;;;;;;;;;;;;;4991959;28;2053;-41
2023/01/02 16:09:52;;;;;;;;;;;;;;;;;;4991879;28;1814;-41
2023/01/02 16:12:20;;;;;;;;;;;;;;;;;;4991540;28;1966;-43
2023/01/02 16:14:51;;;;;;;;;;;;;;;;;;4991669;28;1912;-41
2023/01/02 16:17:25;;;;;;;;;;;;;;;;;;4991559;28;2026;-41
2023/01/02 16:20:11;;;;;;;;;;;;;;;;;;4991617;28;1751;-41
2023/01/02 16:22:44;;;;;;;;;;;;;;;;;;4991608;28;1711;-41
2023/01/02 16:25:12;;;;;;;;;;;;;;;;;;4991722;28;1416;-41
2023/01/02 16:27:48;;;;;;;;;;;;;;;;;;4991778;28;1953;-41
2023/01/02 16:30:27;;;;;;;;;;;;;;;;;;4991525;28;2253;-41
2023/01/02 16:32:54;;;;;;;;;;;;;;;;;;4991294;28;1772;-41
2023/01/02 16:35:23;;;;;;;;;;;;;;;;;;4990155;28;2020;-41
2023/01/02 16:37:57;;;;;;;;;;;;;;;;;;4991479;28;1814;-40
2023/01/02 16:40:35;;;;;;;;;;;;;;;;;;4991502;28;1912;-42
2023/01/02 16:43:30;;;;;;;;;;;;;;;;;;4991180;28;1706;-41
2023/01/02 16:46:07;;;;;;;;;;;;;;;;;;4991333;28;1686;-40
2023/01/02 16:48:38;;;;;;;;;;;;;;;;;;4991485;28;2150;-42
2023/01/02 16:51:05;;;;;;;;;;;;;;;;;;4991305;28;2098;-42
2023/01/02 16:53:33;;;;;;;;;;;;;;;;;;4991273;28;2060;-41
2023/01/02 16:56:00;;;;;;;;;;;;;;;;;;4974288;28;2176;-41
2023/01/02 16:58:28;;;;;;;;;;;;;;;;;;4991440;28;1911;-41
2023/01/02 17:00:55;;;;;;;;;;;;;;;;;;4991316;28;1900;-41
2023/01/02 17:03:24;;;;;;;;;;;;;;;;;;4990129;28;1550;-40
2023/01/02 17:05:54;;;;;;;;;;;;;;;;;;4991281;28;1650;-41
2023/01/02 17:08:27;;;;;;;;;;;;;;;;;;4990830;28;1275;-40
2023/01/02 17:10:57;;;;;;;;;;;;;;;;;;4992697;28;1228;-41
2023/01/02 17:13:28;;;;;;;;;;;;;;;;;;4994737;28;1698;-41
2023/01/02 17:15:55;;;;;;;;;;;;;;;;;;4994796;28;1983;-41
2023/01/02 17:18:23;;;;;;;;;;;;;;;;;;4994516;28;1701;-41
2023/01/02 17:20:50;;;;;;;;;;;;;;;;;;4994088;28;1711;-41
2023/01/02 17:23:18;;;;;;;;;;;;;;;;;;4994651;28;1674;-41
2023/01/02 17:25:46;;;;;;;;;;;;;;;;;;4994667;28;1977;-41
2023/01/02 17:28:13;;;;;;;;;;;;;;;;;;4994511;28;1872;-42
2023/01/02 17:30:42;;;;;;;;;;;;;;;;;;4994482;28;1714;-41
2023/01/02 17:33:09;;;;;;;;;;;;;;;;;;4994147;28;1740;-41
2023/01/02 17:35:44;;;;;;;;;;;;;;;;;;4994270;28;1983;-41
2023/01/02 17:38:12;;;;;;;;;;;;;;;;;;4994418;28;2249;-40
2023/01/02 17:40:39;;;;;;;;;;;;;;;;;;4994338;28;1702;-41
2023/01/02 17:43:06;;;;;;;;;;;;;;;;;;4993953;28;2242;-40